Time;durP1;ratioP1;P1;durP2;ratioP2;P2;SDS_P1;SDS_P2;PMS_P1;PMS_P2;Temp;Humidity;BMP_temperature;BMP_pressure;BME280_temperature;BME280_humidity;BME280_pressure;Samples;Min_cycle;Max_cycle;Signal;HPM_P1;HPM_P2
2023/12/12 00:01:54;;;;;;;1.55;1.45;;;;;;;;;;4979327;28;20218;-62
2023/12/12 00:04:21;;;;;;;2.00;1.80;;;;;;;;;;4979094;28;20245;-62
2023/12/12 00:06:49;;;;;;;1.65;1.55;;;;;;;;;;4978900;28;20275;-62
2023/12/12 00:09:18;;;;;;;1.67;1.50;;;;;;;;;;4979362;28;20298;-62
2023/12/12 00:11:46;;;;;;;1.90;1.60;;;;;;;;;;4979186;28;20212;-62
2023/12/12 00:14:13;;;;;;;1.70;1.60;;;;;;;;;;4978903;28;20210;-62
2023/12/12 00:16:41;;;;;;;2.10;1.88;;;;;;;;;;4979140;28;20215;-62
2023/12/12 00:19:09;;;;;;;1.80;1.60;;;;;;;;;;4978665;28;20577;-62
2023/12/12 00:21:37;;;;;;;1.85;1.42;;;;;;;;;;4978651;28;20584;-62
2023/12/12 00:24:04;;;;;;;1.50;1.40;;;;;;;;;;4978694;28;20235;-62
2023/12/12 00:26:33;;;;;;;1.83;1.50;;;;;;;;;;4979281;28;20208;-62
2023/12/12 00:29:02;;;;;;;1.67;1.58;;;;;;;;;;4979119;28;20216;-62
2023/12/12 00:31:30;;;;;;;1.40;1.30;;;;;;;;;;4979255;28;20219;-62
2023/12/12 00:33:57;;;;;;;1.30;1.20;;;;;;;;;;4979186;28;20231;-62
2023/12/12 00:36:25;;;;;;;1.50;1.40;;;;;;;;;;4978603;28;20212;-62
2023/12/12 00:38:52;;;;;;;1.63;1.42;;;;;;;;;;4978974;28;20261;-62
2023/12/12 00:41:20;;;;;;;1.45;1.30;;;;;;;;;;4978734;28;20243;-62
2023/12/12 00:43:49;;;;;;;1.40;1.30;;;;;;;;;;4978552;28;20235;-62
2023/12/12 00:46:17;;;;;;;1.70;1.38;;;;;;;;;;4978462;28;20248;-62
2023/12/12 00:48:44;;;;;;;1.33;1.23;;;;;;;;;;4978717;28;20226;-62
2023/12/12 00:51:12;;;;;;;1.38;1.27;;;;;;;;;;4978728;28;20216;-62
2023/12/12 00:53:40;;;;;;;1.45;1.35;;;;;;;;;;4978700;28;20524;-62
2023/12/12 00:56:08;;;;;;;1.60;1.40;;;;;;;;;;4978960;28;20261;-62
2023/12/12 00:58:35;;;;;;;1.30;1.20;;;;;;;;;;4978763;28;20274;-62
2023/12/12 01:01:04;;;;;;;1.20;1.10;;;;;;;;;;4978684;28;20215;-62
2023/12/12 01:03:32;;;;;;;1.30;1.10;;;;;;;;;;4978837;28;20243;-62
2023/12/12 01:05:59;;;;;;;1.30;1.20;;;;;;;;;;4978761;28;20208;-62
2023/12/12 01:08:27;;;;;;;1.20;1.10;;;;;;;;;;4978593;28;20246;-62
2023/12/12 01:10:55;;;;;;;1.40;1.30;;;;;;;;;;4978506;28;20270;-62
2023/12/12 01:13:22;;;;;;;1.20;1.10;;;;;;;;;;4978817;28;20196;-62
2023/12/12 01:15:50;;;;;;;1.20;1.10;;;;;;;;;;4978313;28;20634;-62
2023/12/12 01:18:19;;;;;;;1.20;1.10;;;;;;;;;;4978596;28;20273;-62
2023/12/12 01:20:46;;;;;;;1.10;1.00;;;;;;;;;;4978349;28;20282;-62
2023/12/12 01:23:14;;;;;;;0.90;0.90;;;;;;;;;;4978348;28;20223;-62
2023/12/12 01:25:42;;;;;;;1.30;1.20;;;;;;;;;;4978296;28;20515;-62
2023/12/12 01:28:09;;;;;;;1.80;1.10;;;;;;;;;;4978399;28;20260;-62
2023/12/12 01:30:37;;;;;;;1.33;1.00;;;;;;;;;;4980780;28;20615;-62
2023/12/12 01:33:04;;;;;;;1.00;0.98;;;;;;;;;;4982277;28;20207;-62
2023/12/12 01:35:33;;;;;;;1.08;0.98;;;;;;;;;;4982168;28;20212;-62
2023/12/12 01:38:01;;;;;;;1.20;1.10;;;;;;;;;;4982540;28;20231;-62
2023/12/12 01:40:29;;;;;;;0.80;0.80;;;;;;;;;;4982308;28;20278;-62
2023/12/12 01:43:04;;;;;;;1.20;1.10;;;;;;;;;;4982516;28;20234;-62
2023/12/12 01:45:32;;;;;;;1.00;0.90;;;;;;;;;;4982249;28;20250;-62
2023/12/12 01:47:59;;;;;;;0.95;0.95;;;;;;;;;;4982329;28;20536;-66
2023/12/12 01:50:28;;;;;;;0.80;0.80;;;;;;;;;;4982318;28;20215;-62
2023/12/12 01:52:57;;;;;;;1.10;1.00;;;;;;;;;;4982161;28;20208;-62
2023/12/12 01:55:24;;;;;;;0.95;0.90;;;;;;;;;;4982111;28;20204;-62
2023/12/12 01:57:52;;;;;;;0.98;0.85;;;;;;;;;;4981903;28;20208;-62
2023/12/12 02:00:20;;;;;;;1.08;0.90;;;;;;;;;;4981738;28;20219;-62
2023/12/12 02:02:47;;;;;;;0.80;0.80;;;;;;;;;;4981850;28;20214;-62
2023/12/12 02:05:16;;;;;;;0.65;0.65;;;;;;;;;;4981498;28;20698;-62
2023/12/12 02:07:44;;;;;;;0.90;0.77;;;;;;;;;;4982007;28;20208;-62
2023/12/12 02:10:13;;;;;;;1.02;0.73;;;;;;;;;;4981196;28;20550;-62
2023/12/12 02:12:40;;;;;;;1.00;0.90;;;;;;;;;;4981635;28;20215;-62
2023/12/12 02:15:08;;;;;;;0.88;0.85;;;;;;;;;;4981565;28;20580;-62
2023/12/12 02:17:36;;;;;;;0.77;0.77;;;;;;;;;;4981305;28;20218;-62
2023/12/12 02:20:05;;;;;;;1.08;0.90;;;;;;;;;;4981459;28;20242;-62
2023/12/12 02:22:33;;;;;;;0.85;0.85;;;;;;;;;;4981502;28;20482;-62
2023/12/12 02:25:01;;;;;;;0.70;0.63;;;;;;;;;;4981416;28;20231;-62
2023/12/12 02:27:29;;;;;;;0.93;0.90;;;;;;;;;;4981419;28;20215;-62
2023/12/12 02:29:56;;;;;;;0.85;0.80;;;;;;;;;;4981313;28;20306;-62
2023/12/12 02:32:24;;;;;;;1.10;0.90;;;;;;;;;;4981282;28;20256;-62
2023/12/12 02:34:51;;;;;;;0.75;0.75;;;;;;;;;;4981119;28;20212;-62
2023/12/12 02:37:19;;;;;;;0.90;0.80;;;;;;;;;;4981553;28;20234;-62
2023/12/12 02:39:48;;;;;;;0.88;0.70;;;;;;;;;;4981149;28;20214;-62
2023/12/12 02:42:15;;;;;;;1.20;0.95;;;;;;;;;;4980363;28;20208;-62
2023/12/12 02:44:43;;;;;;;0.80;0.80;;;;;;;;;;4980822;28;20283;-62
2023/12/12 02:47:11;;;;;;;0.80;0.70;;;;;;;;;;4981028;28;20215;-62
2023/12/12 02:49:38;;;;;;;0.98;0.80;;;;;;;;;;4980891;28;20216;-62
2023/12/12 02:52:06;;;;;;;0.85;0.77;;;;;;;;;;4980975;28;20218;-62
2023/12/12 02:54:33;;;;;;;0.80;0.60;;;;;;;;;;4980673;28;20219;-62
2023/12/12 02:57:02;;;;;;;0.82;0.73;;;;;;;;;;4980399;28;20207;-62
2023/12/12 02:59:30;;;;;;;0.80;0.80;;;;;;;;;;4981031;28;20219;-62
2023/12/12 03:01:57;;;;;;;0.70;0.70;;;;;;;;;;4980519;28;20215;-62
2023/12/12 03:04:25;;;;;;;0.88;0.80;;;;;;;;;;4980125;28;20246;-62
2023/12/12 03:06:52;;;;;;;0.80;0.80;;;;;;;;;;4980683;28;20247;-62
2023/12/12 03:09:20;;;;;;;0.70;0.70;;;;;;;;;;4980561;28;20207;-62
2023/12/12 03:11:49;;;;;;;0.70;0.70;;;;;;;;;;4980530;28;20459;-62
2023/12/12 03:14:19;;;;;;;0.75;0.60;;;;;;;;;;4980248;28;20204;-62
2023/12/12 03:16:46;;;;;;;0.88;0.80;;;;;;;;;;4980830;28;20234;-62
2023/12/12 03:19:14;;;;;;;0.80;0.80;;;;;;;;;;4980396;28;20208;-62
2023/12/12 03:21:42;;;;;;;0.75;0.68;;;;;;;;;;4980376;28;20254;-62
2023/12/12 03:24:09;;;;;;;1.48;0.85;;;;;;;;;;4980275;28;20275;-62
2023/12/12 03:26:37;;;;;;;1.00;0.60;;;;;;;;;;4980179;28;20239;-62
2023/12/12 03:29:04;;;;;;;1.08;0.60;;;;;;;;;;4980449;28;20528;-62
2023/12/12 03:31:33;;;;;;;0.85;0.85;;;;;;;;;;4979893;28;20343;-62
2023/12/12 03:34:01;;;;;;;0.60;0.60;;;;;;;;;;4980111;28;20204;-62
2023/12/12 03:36:29;;;;;;;1.27;0.90;;;;;;;;;;4979818;28;20599;-62
2023/12/12 03:38:56;;;;;;;0.93;0.70;;;;;;;;;;4980075;28;20215;-62
2023/12/12 03:41:24;;;;;;;0.70;0.70;;;;;;;;;;4980086;28;20239;-62
2023/12/12 03:43:52;;;;;;;0.70;0.70;;;;;;;;;;4980020;28;20302;-62
2023/12/12 03:46:20;;;;;;;1.10;0.73;;;;;;;;;;4979952;28;20215;-62
2023/12/12 03:48:49;;;;;;;0.80;0.55;;;;;;;;;;4980034;28;20212;-62
2023/12/12 03:51:16;;;;;;;0.80;0.80;;;;;;;;;;4979847;28;20211;-62
2023/12/12 03:53:44;;;;;;;0.47;0.40;;;;;;;;;;4978285;28;20298;-62
2023/12/12 03:56:12;;;;;;;0.63;0.52;;;;;;;;;;4979420;28;20215;-62
2023/12/12 03:58:39;;;;;;;0.88;0.88;;;;;;;;;;4979729;28;20607;-62
2023/12/12 04:01:07;;;;;;;1.05;0.70;;;;;;;;;;4979194;28;20650;-62
2023/12/12 04:03:34;;;;;;;0.85;0.70;;;;;;;;;;4979230;28;20270;-62
2023/12/12 04:06:04;;;;;;;0.85;0.55;;;;;;;;;;4979565;28;20231;-62
2023/12/12 04:08:32;;;;;;;0.80;0.60;;;;;;;;;;4979642;28;20211;-62
2023/12/12 04:11:00;;;;;;;0.88;0.77;;;;;;;;;;4979611;28;20281;-62
2023/12/12 04:13:27;;;;;;;0.70;0.70;;;;;;;;;;4979373;28;20211;-62
2023/12/12 04:16:02;;;;;;;1.33;0.70;;;;;;;;;;5135899;27;20546;-62
2023/12/12 04:18:30;;;;;;;0.63;0.63;;;;;;;;;;5136129;27;20297;-62
2023/12/12 04:20:57;;;;;;;0.60;0.60;;;;;;;;;;5135542;27;20577;-62
2023/12/12 04:23:25;;;;;;;0.82;0.60;;;;;;;;;;5135857;27;20210;-62
2023/12/12 04:25:52;;;;;;;0.80;0.73;;;;;;;;;;5135497;27;20213;-62
2023/12/12 04:28:20;;;;;;;0.63;0.63;;;;;;;;;;5135638;27;20210;-62
2023/12/12 04:30:48;;;;;;;0.60;0.60;;;;;;;;;;5135795;27;20202;-62
2023/12/12 04:33:17;;;;;;;0.60;0.60;;;;;;;;;;5135936;27;20656;-62
2023/12/12 04:35:44;;;;;;;1.20;0.70;;;;;;;;;;5135196;27;20226;-62
2023/12/12 04:38:12;;;;;;;0.90;0.63;;;;;;;;;;5135018;27;20202;-63
2023/12/12 04:40:40;;;;;;;0.57;0.55;;;;;;;;;;5135588;27;20202;-62
2023/12/12 04:43:07;;;;;;;1.38;0.90;;;;;;;;;;5135210;27;20202;-62
2023/12/12 04:45:35;;;;;;;0.70;0.50;;;;;;;;;;5134762;27;20525;-62
2023/12/12 04:48:03;;;;;;;0.55;0.55;;;;;;;;;;5135371;27;20542;-62
2023/12/12 04:50:32;;;;;;;0.60;0.60;;;;;;;;;;5135038;27;20339;-63
2023/12/12 04:52:59;;;;;;;0.60;0.60;;;;;;;;;;5134853;27;20202;-62
2023/12/12 04:55:26;;;;;;;0.85;0.73;;;;;;;;;;5134990;27;20237;-62
2023/12/12 04:57:54;;;;;;;0.60;0.60;;;;;;;;;;5135159;27;20293;-62
2023/12/12 05:00:22;;;;;;;0.60;0.60;;;;;;;;;;5135253;27;20533;-62
2023/12/12 05:02:49;;;;;;;0.45;0.45;;;;;;;;;;5134811;27;20570;-62
2023/12/12 05:05:17;;;;;;;1.33;0.70;;;;;;;;;;5134463;27;20210;-62
2023/12/12 05:07:46;;;;;;;0.70;0.63;;;;;;;;;;5134840;27;20210;-62
2023/12/12 05:10:14;;;;;;;0.85;0.60;;;;;;;;;;5134522;27;20503;-62
2023/12/12 05:12:41;;;;;;;0.70;0.50;;;;;;;;;;5134081;27;20578;-62
2023/12/12 05:15:11;;;;;;;0.60;0.50;;;;;;;;;;5115161;27;20234;-62
2023/12/12 05:17:38;;;;;;;0.60;0.60;;;;;;;;;;5113719;28;20246;-62
2023/12/12 05:20:06;;;;;;;0.57;0.57;;;;;;;;;;5113474;28;20203;-62
2023/12/12 05:22:34;;;;;;;1.02;0.70;;;;;;;;;;5113131;28;20213;-62
2023/12/12 05:25:05;;;;;;;1.08;0.60;;;;;;;;;;5113686;28;20206;-62
2023/12/12 05:27:32;;;;;;;0.77;0.70;;;;;;;;;;5099498;28;20203;-62
2023/12/12 05:30:00;;;;;;;0.75;0.63;;;;;;;;;;5099824;28;20299;-62
2023/12/12 05:32:27;;;;;;;0.50;0.50;;;;;;;;;;5099366;28;20203;-62
2023/12/12 05:34:55;;;;;;;0.70;0.70;;;;;;;;;;5099829;28;20223;-62
2023/12/12 05:37:23;;;;;;;0.98;0.60;;;;;;;;;;5099334;28;20421;-62
2023/12/12 05:39:50;;;;;;;1.00;0.55;;;;;;;;;;5099719;28;20213;-62
2023/12/12 05:42:20;;;;;;;0.60;0.60;;;;;;;;;;5099715;28;20272;-62
2023/12/12 05:44:48;;;;;;;0.98;0.60;;;;;;;;;;5099578;28;20206;-62
2023/12/12 05:47:15;;;;;;;1.00;0.60;;;;;;;;;;5098968;28;20207;-62
2023/12/12 05:49:43;;;;;;;0.70;0.50;;;;;;;;;;5099070;28;20203;-62
2023/12/12 05:52:10;;;;;;;1.20;0.63;;;;;;;;;;5098798;28;20268;-62
2023/12/12 05:54:38;;;;;;;0.60;0.60;;;;;;;;;;5098173;28;20529;-63
2023/12/12 05:57:06;;;;;;;0.52;0.52;;;;;;;;;;5098315;28;20210;-62
2023/12/12 05:59:34;;;;;;;0.60;0.55;;;;;;;;;;5098426;28;20504;-62
2023/12/12 06:02:03;;;;;;;0.80;0.50;;;;;;;;;;5097186;28;20246;-63
2023/12/12 06:04:31;;;;;;;1.38;0.57;;;;;;;;;;5096466;28;20215;-62
2023/12/12 06:06:58;;;;;;;0.80;0.80;;;;;;;;;;5097302;28;20203;-62
2023/12/12 06:09:25;;;;;;;0.60;0.60;;;;;;;;;;5096459;28;20211;-62
2023/12/12 06:11:53;;;;;;;1.60;0.77;;;;;;;;;;5097130;28;20488;-62
2023/12/12 06:14:20;;;;;;;1.10;0.68;;;;;;;;;;5096778;28;20227;-62
2023/12/12 06:16:49;;;;;;;0.73;0.60;;;;;;;;;;5096642;28;20233;-63
2023/12/12 06:19:16;;;;;;;0.68;0.57;;;;;;;;;;5095989;28;20204;-62
2023/12/12 06:21:44;;;;;;;0.65;0.60;;;;;;;;;;5096745;28;20240;-63
2023/12/12 06:24:12;;;;;;;0.95;0.80;;;;;;;;;;5097096;28;20776;-62
2023/12/12 06:26:40;;;;;;;0.60;0.60;;;;;;;;;;5096869;28;20248;-62
2023/12/12 06:29:08;;;;;;;0.70;0.60;;;;;;;;;;5096444;28;20204;-62
2023/12/12 06:31:36;;;;;;;1.48;0.70;;;;;;;;;;5096518;28;20226;-62
2023/12/12 06:34:05;;;;;;;1.15;0.90;;;;;;;;;;5096173;28;20211;-62
2023/12/12 06:36:32;;;;;;;1.98;1.27;;;;;;;;;;5095876;28;20733;-62
2023/12/12 06:39:00;;;;;;;2.90;2.30;;;;;;;;;;5095846;28;20214;-62
2023/12/12 06:41:27;;;;;;;5.43;4.28;;;;;;;;;;5096370;28;20555;-62
2023/12/12 06:43:55;;;;;;;8.60;6.25;;;;;;;;;;5096009;28;20560;-62
2023/12/12 06:46:22;;;;;;;12.38;8.60;;;;;;;;;;5094864;28;20204;-62
2023/12/12 06:48:50;;;;;;;14.18;11.13;;;;;;;;;;5095309;28;20211;-62
2023/12/12 06:51:19;;;;;;;18.33;12.15;;;;;;;;;;5095924;28;20212;-62
2023/12/12 06:53:46;;;;;;;20.08;14.18;;;;;;;;;;5096118;28;20257;-62
2023/12/12 06:56:14;;;;;;;23.80;15.23;;;;;;;;;;5096012;28;20234;-62
2023/12/12 06:58:41;;;;;;;21.80;16.23;;;;;;;;;;5095919;28;20207;-62
2023/12/12 07:01:09;;;;;;;20.92;16.08;;;;;;;;;;5095879;28;20196;-62
2023/12/12 07:03:36;;;;;;;23.23;17.90;;;;;;;;;;5096074;28;20265;-62
2023/12/12 07:06:04;;;;;;;27.27;19.83;;;;;;;;;;5096206;28;20276;-62
2023/12/12 07:08:33;;;;;;;24.70;19.70;;;;;;;;;;5096334;28;20208;-62
2023/12/12 07:11:00;;;;;;;27.63;21.60;;;;;;;;;;5095877;28;20276;-62
2023/12/12 07:13:28;;;;;;;31.48;23.17;;;;;;;;;;5096017;28;20212;-62
2023/12/12 07:15:56;;;;;;;31.15;24.08;;;;;;;;;;5096597;28;20240;-63
2023/12/12 07:18:24;;;;;;;35.55;26.10;;;;;;;;;;5096767;28;20250;-62
2023/12/12 07:20:53;;;;;;;37.35;26.65;;;;;;;;;;5096220;28;20483;-62
2023/12/12 07:23:20;;;;;;;35.40;27.00;;;;;;;;;;5096193;28;20196;-62
2023/12/12 07:25:49;;;;;;;37.90;27.60;;;;;;;;;;5096286;28;20196;-62
2023/12/12 07:28:17;;;;;;;36.97;28.75;;;;;;;;;;5096212;28;20635;-62
2023/12/12 07:30:44;;;;;;;36.25;28.10;;;;;;;;;;5095849;28;20260;-62
2023/12/12 07:33:12;;;;;;;39.55;29.30;;;;;;;;;;5096381;28;20227;-62
2023/12/12 07:35:40;;;;;;;43.00;31.52;;;;;;;;;;5096761;28;20235;-62
2023/12/12 07:38:07;;;;;;;39.50;29.80;;;;;;;;;;5096263;28;20204;-62
2023/12/12 07:40:34;;;;;;;39.92;30.20;;;;;;;;;;5096841;28;20215;-62
2023/12/12 07:43:03;;;;;;;42.03;32.35;;;;;;;;;;5095898;28;20454;-63
2023/12/12 07:45:30;;;;;;;41.85;32.72;;;;;;;;;;5095493;28;20199;-62
2023/12/12 07:47:58;;;;;;;39.85;30.90;;;;;;;;;;5095835;28;20223;-62
2023/12/12 07:50:25;;;;;;;45.50;33.55;;;;;;;;;;5095986;28;20214;-62
2023/12/12 07:52:53;;;;;;;39.85;32.13;;;;;;;;;;5096042;28;20237;-62
2023/12/12 07:55:20;;;;;;;43.28;32.95;;;;;;;;;;5096568;28;20219;-62
2023/12/12 07:57:48;;;;;;;40.63;32.30;;;;;;;;;;5096525;28;20203;-62
2023/12/12 08:00:17;;;;;;;43.55;32.75;;;;;;;;;;5096128;28;20203;-62
2023/12/12 08:02:45;;;;;;;43.58;33.42;;;;;;;;;;5095398;28;20522;-62
2023/12/12 08:05:12;;;;;;;41.85;33.35;;;;;;;;;;5095018;28;20199;-62
2023/12/12 08:07:40;;;;;;;43.65;35.35;;;;;;;;;;5095650;28;20264;-62
2023/12/12 08:10:08;;;;;;;46.05;33.78;;;;;;;;;;5095392;28;20215;-62
2023/12/12 08:12:35;;;;;;;43.70;33.58;;;;;;;;;;5095568;28;20208;-62
2023/12/12 08:15:03;;;;;;;43.17;33.90;;;;;;;;;;5095078;28;20237;-62
2023/12/12 08:17:32;;;;;;;42.60;34.42;;;;;;;;;;5095635;28;20212;-62
2023/12/12 08:19:59;;;;;;;41.45;33.63;;;;;;;;;;5095607;28;20204;-62
2023/12/12 08:22:26;;;;;;;43.65;35.15;;;;;;;;;;5095731;28;20214;-62
2023/12/12 08:24:54;;;;;;;44.45;33.97;;;;;;;;;;5095344;28;20205;-62
2023/12/12 08:27:21;;;;;;;44.53;34.17;;;;;;;;;;5094956;28;20211;-62
2023/12/12 08:29:49;;;;;;;43.50;33.78;;;;;;;;;;5095248;28;20203;-62
2023/12/12 08:32:17;;;;;;;45.47;35.72;;;;;;;;;;5095264;28;20209;-62
2023/12/12 08:34:46;;;;;;;39.58;32.42;;;;;;;;;;5095635;28;20196;-62
2023/12/12 08:37:15;;;;;;;43.42;33.28;;;;;;;;;;5095334;28;20687;-62
2023/12/12 08:39:42;;;;;;;40.00;32.35;;;;;;;;;;5094940;28;20310;-62
2023/12/12 08:42:10;;;;;;;42.30;33.38;;;;;;;;;;5094923;28;20203;-62
2023/12/12 08:44:38;;;;;;;38.97;31.92;;;;;;;;;;5095718;28;20218;-62
2023/12/12 08:47:06;;;;;;;39.25;32.00;;;;;;;;;;5095786;28;20203;-62
2023/12/12 08:49:37;;;;;;;37.88;31.08;;;;;;;;;;5095478;28;20253;-62
2023/12/12 08:52:07;;;;;;;37.80;30.60;;;;;;;;;;5094378;28;20215;-62
2023/12/12 08:54:35;;;;;;;36.85;30.77;;;;;;;;;;5095755;28;20602;-62
2023/12/12 08:57:02;;;;;;;38.22;30.98;;;;;;;;;;5095171;28;20223;-62
2023/12/12 08:59:30;;;;;;;39.33;30.83;;;;;;;;;;5095293;28;20294;-63
2023/12/12 09:01:58;;;;;;;39.92;30.33;;;;;;;;;;5097162;28;20199;-62
2023/12/12 09:04:25;;;;;;;36.53;29.75;;;;;;;;;;5098997;28;20731;-62
2023/12/12 09:06:53;;;;;;;38.17;29.42;;;;;;;;;;5098581;28;20469;-62
2023/12/12 09:09:22;;;;;;;35.67;30.27;;;;;;;;;;5099006;28;20204;-62
2023/12/12 09:11:50;;;;;;;34.92;28.80;;;;;;;;;;5098545;28;20203;-62
2023/12/12 09:14:17;;;;;;;35.75;29.17;;;;;;;;;;5099095;28;20242;-62
2023/12/12 09:16:45;;;;;;;37.10;28.90;;;;;;;;;;5098612;28;20607;-62
2023/12/12 09:19:15;;;;;;;37.40;29.67;;;;;;;;;;5098387;28;20741;-62
2023/12/12 09:21:42;;;;;;;34.00;28.48;;;;;;;;;;5098476;28;20269;-62
2023/12/12 09:24:10;;;;;;;33.13;27.88;;;;;;;;;;5098221;28;20813;-62
2023/12/12 09:26:39;;;;;;;34.28;28.75;;;;;;;;;;5099114;28;20200;-62
2023/12/12 09:29:06;;;;;;;33.83;27.75;;;;;;;;;;5098696;28;20203;-62
2023/12/12 09:31:35;;;;;;;35.00;28.17;;;;;;;;;;5098349;28;20606;-62
2023/12/12 09:34:02;;;;;;;31.77;26.02;;;;;;;;;;5098562;28;20204;-62
2023/12/12 09:36:29;;;;;;;31.98;26.40;;;;;;;;;;5097786;28;20630;-62
2023/12/12 09:38:57;;;;;;;32.92;27.02;;;;;;;;;;5098143;28;20204;-62
2023/12/12 09:41:25;;;;;;;29.85;24.55;;;;;;;;;;5098287;28;20211;-62
2023/12/12 09:43:54;;;;;;;31.13;25.67;;;;;;;;;;5098140;28;20235;-62
2023/12/12 09:46:21;;;;;;;29.33;25.00;;;;;;;;;;5097945;28;20203;-62
2023/12/12 09:48:52;;;;;;;31.27;25.60;;;;;;;;;;5097914;28;20253;-62
2023/12/12 09:51:20;;;;;;;30.25;24.88;;;;;;;;;;5097714;28;20619;-62
2023/12/12 09:53:47;;;;;;;28.92;24.40;;;;;;;;;;5098120;28;20811;-62
2023/12/12 09:56:18;;;;;;;26.95;23.23;;;;;;;;;;5098206;28;20224;-62
2023/12/12 09:58:46;;;;;;;31.23;24.13;;;;;;;;;;5097947;28;20203;-62
2023/12/12 10:01:15;;;;;;;27.00;22.95;;;;;;;;;;5098275;28;20203;-63
2023/12/12 10:03:43;;;;;;;25.92;22.52;;;;;;;;;;5097368;28;20214;-62
2023/12/12 10:06:12;;;;;;;27.50;23.10;;;;;;;;;;5097482;28;20200;-62
2023/12/12 10:08:39;;;;;;;26.50;22.08;;;;;;;;;;5097776;28;20203;-62
2023/12/12 10:11:07;;;;;;;27.35;22.20;;;;;;;;;;5096428;28;20203;-62
2023/12/12 10:13:48;;;;;;;28.02;22.73;;;;;;;;;;5097771;28;20204;-62
2023/12/12 10:16:17;;;;;;;25.90;21.00;;;;;;;;;;5097998;28;20219;-62
2023/12/12 10:18:46;;;;;;;25.80;22.02;;;;;;;;;;5097096;28;20481;-62
2023/12/12 10:21:17;;;;;;;24.17;21.15;;;;;;;;;;5097633;28;20200;-62
2023/12/12 10:23:45;;;;;;;24.52;20.35;;;;;;;;;;5097311;28;20273;-62
2023/12/12 10:26:13;;;;;;;23.58;19.98;;;;;;;;;;5097482;28;20265;-62
2023/12/12 10:28:41;;;;;;;24.90;20.02;;;;;;;;;;5097464;28;20214;-62
2023/12/12 10:31:09;;;;;;;25.70;19.70;;;;;;;;;;5096727;28;20199;-62
2023/12/12 10:33:39;;;;;;;23.85;20.00;;;;;;;;;;5095693;28;20214;-62
2023/12/12 10:36:10;;;;;;;23.63;19.10;;;;;;;;;;5095855;28;20792;-62
2023/12/12 10:38:38;;;;;;;21.23;18.52;;;;;;;;;;5096494;28;20483;-62
2023/12/12 10:41:12;;;;;;;21.73;18.90;;;;;;;;;;5096272;28;20200;-62
2023/12/12 10:43:41;;;;;;;20.65;17.55;;;;;;;;;;5095492;28;20233;-62
2023/12/12 10:46:11;;;;;;;23.90;19.10;;;;;;;;;;5095447;28;20549;-62
2023/12/12 10:48:43;;;;;;;20.80;17.88;;;;;;;;;;5095569;28;20211;-62
2023/12/12 10:51:11;;;;;;;21.40;17.30;;;;;;;;;;5095519;28;20547;-62
2023/12/12 10:53:39;;;;;;;21.52;18.23;;;;;;;;;;5095950;28;20212;-62
2023/12/12 10:56:07;;;;;;;20.40;17.08;;;;;;;;;;5096087;28;20610;-62
2023/12/12 10:58:36;;;;;;;19.30;16.65;;;;;;;;;;5095883;28;20203;-62
2023/12/12 11:01:04;;;;;;;19.25;16.80;;;;;;;;;;5095467;28;20628;-62
2023/12/12 11:03:45;;;;;;;19.23;16.35;;;;;;;;;;5095938;28;20199;-62
2023/12/12 11:09:16;;;;;;;17.98;15.80;;;;;;;;;;5095691;28;20186;-62
2023/12/12 11:11:44;;;;;;;18.92;15.35;;;;;;;;;;5096147;28;20278;-62
2023/12/12 11:14:12;;;;;;;19.02;16.08;;;;;;;;;;5094827;28;20280;-62
2023/12/12 11:16:40;;;;;;;18.27;15.18;;;;;;;;;;5095256;28;20299;-62
2023/12/12 11:19:17;;;;;;;17.27;14.77;;;;;;;;;;5095515;28;20210;-62
2023/12/12 11:21:45;;;;;;;17.05;14.32;;;;;;;;;;5094913;28;20203;-62
2023/12/12 11:24:12;;;;;;;18.38;15.13;;;;;;;;;;5094437;28;20210;-62
2023/12/12 11:26:40;;;;;;;17.60;15.05;;;;;;;;;;5094904;28;20199;-63
2023/12/12 11:29:08;;;;;;;16.58;14.10;;;;;;;;;;5095064;28;20204;-62
2023/12/12 11:31:36;;;;;;;15.95;13.88;;;;;;;;;;5094808;28;20740;-62
2023/12/12 11:34:05;;;;;;;14.77;13.02;;;;;;;;;;5094971;28;20255;-62
2023/12/12 11:36:47;;;;;;;16.17;13.40;;;;;;;;;;5094894;28;20228;-62
2023/12/12 11:39:19;;;;;;;15.07;13.27;;;;;;;;;;5092094;28;20204;-62
2023/12/12 11:41:47;;;;;;;15.65;12.82;;;;;;;;;;5093373;28;20218;-62
2023/12/12 11:44:14;;;;;;;15.13;13.30;;;;;;;;;;5095791;28;20450;-62
2023/12/12 11:46:44;;;;;;;14.15;12.40;;;;;;;;;;5095421;28;20199;-62
2023/12/12 11:49:21;;;;;;;14.82;12.70;;;;;;;;;;5094810;28;20209;-62
2023/12/12 11:51:49;;;;;;;14.68;12.38;;;;;;;;;;5094497;28;20203;-62
2023/12/12 11:54:22;;;;;;;14.73;11.93;;;;;;;;;;5094088;28;20260;-62
2023/12/12 11:56:49;;;;;;;14.77;12.55;;;;;;;;;;5094225;28;20266;-62
2023/12/12 11:59:22;;;;;;;15.32;12.82;;;;;;;;;;5094777;28;20582;-62
2023/12/12 12:01:49;;;;;;;13.15;11.52;;;;;;;;;;5094709;28;20212;-63
2023/12/12 12:04:17;;;;;;;14.07;11.40;;;;;;;;;;5094316;28;20211;-62
2023/12/12 12:06:45;;;;;;;14.57;10.90;;;;;;;;;;5094030;28;20481;-62
2023/12/12 12:09:13;;;;;;;12.30;10.98;;;;;;;;;;5094230;28;20203;-62
2023/12/12 12:11:42;;;;;;;12.73;11.15;;;;;;;;;;5094273;28;20465;-62
2023/12/12 12:14:09;;;;;;;13.25;10.80;;;;;;;;;;5093294;28;20234;-62
2023/12/12 12:16:37;;;;;;;13.48;10.95;;;;;;;;;;5094512;28;20226;-62
2023/12/12 12:19:24;;;;;;;11.45;10.00;;;;;;;;;;5094092;28;20687;-62
2023/12/12 12:21:51;;;;;;;11.75;9.82;;;;;;;;;;5094136;28;20205;-62
2023/12/12 12:24:18;;;;;;;11.43;10.07;;;;;;;;;;5094915;28;20214;-61
2023/12/12 12:26:47;;;;;;;11.85;9.65;;;;;;;;;;5094075;28;20207;-61
2023/12/12 12:29:15;;;;;;;11.38;9.45;;;;;;;;;;5094973;28;20211;-62
2023/12/12 12:31:42;;;;;;;10.95;9.48;;;;;;;;;;5094239;28;20199;-62
2023/12/12 12:34:18;;;;;;;10.80;9.45;;;;;;;;;;5094423;28;20752;-62
2023/12/12 12:36:46;;;;;;;11.98;10.25;;;;;;;;;;5096655;28;20230;-62
2023/12/12 12:39:14;;;;;;;11.70;9.55;;;;;;;;;;5097572;28;20203;-62
2023/12/12 12:41:43;;;;;;;11.05;9.48;;;;;;;;;;5097877;28;20207;-62
2023/12/12 12:44:12;;;;;;;10.70;8.43;;;;;;;;;;5098138;28;20310;-62
2023/12/12 12:46:39;;;;;;;11.25;9.30;;;;;;;;;;5098083;28;20346;-62
2023/12/12 12:49:07;;;;;;;11.30;8.68;;;;;;;;;;5098205;28;20199;-62
2023/12/12 12:51:35;;;;;;;10.02;9.00;;;;;;;;;;5098080;28;20305;-62
2023/12/12 12:54:02;;;;;;;9.70;8.27;;;;;;;;;;5097861;28;20222;-62
2023/12/12 12:56:29;;;;;;;10.20;8.10;;;;;;;;;;5096907;28;20210;-62
2023/12/12 12:58:57;;;;;;;9.15;8.10;;;;;;;;;;5097782;28;20214;-62
2023/12/12 13:01:25;;;;;;;9.05;7.68;;;;;;;;;;5097530;28;20207;-62
2023/12/12 13:03:53;;;;;;;9.52;8.05;;;;;;;;;;5096353;28;20210;-62
2023/12/12 13:06:20;;;;;;;9.27;7.22;;;;;;;;;;5097576;28;20203;-62
2023/12/12 13:08:48;;;;;;;8.57;7.68;;;;;;;;;;5098252;28;20210;-62
2023/12/12 13:11:15;;;;;;;8.98;7.10;;;;;;;;;;5097935;28;20207;-62
2023/12/12 13:13:43;;;;;;;8.57;7.38;;;;;;;;;;5097520;28;20215;-62
2023/12/12 13:16:10;;;;;;;8.52;7.30;;;;;;;;;;5097184;28;20212;-62
2023/12/12 13:18:39;;;;;;;9.00;7.32;;;;;;;;;;5097455;28;20234;-63
2023/12/12 13:21:07;;;;;;;8.02;7.22;;;;;;;;;;5095884;28;20215;-62
2023/12/12 13:23:35;;;;;;;7.45;6.75;;;;;;;;;;5097360;28;20203;-62
2023/12/12 13:26:04;;;;;;;8.23;6.97;;;;;;;;;;5096803;28;20200;-62
2023/12/12 13:28:32;;;;;;;7.55;6.65;;;;;;;;;;5096385;28;20222;-62
2023/12/12 13:30:59;;;;;;;7.35;6.18;;;;;;;;;;5096796;28;20210;-62
2023/12/12 13:33:27;;;;;;;7.18;6.40;;;;;;;;;;5096584;28;20207;-62
2023/12/12 13:35:55;;;;;;;6.72;5.85;;;;;;;;;;5096234;28;20200;-62
2023/12/12 13:38:23;;;;;;;7.78;6.10;;;;;;;;;;5095747;28;20233;-62
2023/12/12 13:40:50;;;;;;;7.40;5.82;;;;;;;;;;5095755;28;20211;-62
2023/12/12 13:43:18;;;;;;;7.32;6.47;;;;;;;;;;5095902;28;20207;-62
2023/12/12 13:45:46;;;;;;;7.70;6.07;;;;;;;;;;5097028;28;20207;-63
2023/12/12 13:48:17;;;;;;;6.63;5.93;;;;;;;;;;5096384;28;20196;-62
2023/12/12 13:50:45;;;;;;;6.82;6.10;;;;;;;;;;5096432;28;20251;-62
2023/12/12 13:53:13;;;;;;;6.70;5.68;;;;;;;;;;5096079;28;20209;-62
2023/12/12 13:55:41;;;;;;;7.05;5.72;;;;;;;;;;5097078;28;20215;-62
2023/12/12 13:58:08;;;;;;;5.97;5.13;;;;;;;;;;5097004;28;20219;-62
2023/12/12 14:00:36;;;;;;;7.00;5.40;;;;;;;;;;5096587;28;20539;-62
2023/12/12 14:03:03;;;;;;;6.00;5.40;;;;;;;;;;5096490;28;20206;-62
2023/12/12 14:05:31;;;;;;;5.90;5.30;;;;;;;;;;5097257;28;20219;-62
2023/12/12 14:07:58;;;;;;;5.90;5.30;;;;;;;;;;5096881;28;20199;-62
2023/12/12 14:10:27;;;;;;;6.50;4.78;;;;;;;;;;5096801;28;20203;-62
2023/12/12 14:12:54;;;;;;;5.40;4.75;;;;;;;;;;5096364;28;20207;-62
2023/12/12 14:15:21;;;;;;;5.45;4.95;;;;;;;;;;5095524;28;20231;-62
2023/12/12 14:17:49;;;;;;;6.10;5.32;;;;;;;;;;5095943;28;20223;-62
2023/12/12 14:20:16;;;;;;;6.05;4.80;;;;;;;;;;5095552;28;20234;-62
2023/12/12 14:22:43;;;;;;;5.75;4.28;;;;;;;;;;5095652;28;20210;-62
2023/12/12 14:25:11;;;;;;;4.88;4.38;;;;;;;;;;5095393;28;20231;-62
2023/12/12 14:27:41;;;;;;;5.40;4.28;;;;;;;;;;5096222;28;20195;-66
2023/12/12 14:30:09;;;;;;;6.13;4.90;;;;;;;;;;5096371;28;20214;-62
2023/12/12 14:32:37;;;;;;;5.72;4.40;;;;;;;;;;5094831;28;20652;-62
2023/12/12 14:35:07;;;;;;;5.00;4.32;;;;;;;;;;5094749;28;20307;-62
2023/12/12 14:37:34;;;;;;;5.20;4.70;;;;;;;;;;5095807;28;20322;-62
2023/12/12 14:40:01;;;;;;;4.82;3.85;;;;;;;;;;5096117;28;20253;-62
2023/12/12 14:42:29;;;;;;;5.00;4.43;;;;;;;;;;5095319;28;20209;-62